Aviation Digital Data Service (ADDS)

Output produced by METARs form (1658 UTC 16 June 2019)
found at http://www.aviationweather.gov/metar/data/
 
METAR text: VABB 161630Z 20008KT 3000 HZ FEW020 SCT025 FEW030TCU BKN100 29/26 Q1007 NOSIG
Conditions at: VABB (BOMBAY/SANTACRUZ, IN) observed 1630 UTC 16 June 2019
Temperature: 29.0°C (84°F)
Dewpoint: 26.0°C (79°F) [RH = 84%]
Pressure (altimeter): 29.73 inches Hg (1007.0 mb)
Winds: from the SSW (200 degrees) at 9 MPH (8 knots; 4.1 m/s)
Visibility: 1.86 miles (2.99 km)
Ceiling: 10000 feet AGL
Clouds: few clouds at 2000 feet AGL
scattered clouds at 2500 feet AGL
few clouds at 3000 feet AGL
broken clouds at 10000 feet AGL
Weather: HZ  (haze)

METAR text: VABB 161600Z 19008G18KT 3000 HZ FEW020 SCT025 FEW030TCU BKN100 30/27 Q1007 NOSIG
Conditions at: VABB (BOMBAY/SANTACRUZ, IN) observed 1600 UTC 16 June 2019
Temperature: 30.0°C (86°F)
Dewpoint: 27.0°C (81°F) [RH = 84%]
Pressure (altimeter): 29.73 inches Hg (1007.0 mb)
Winds: from the S (190 degrees) at 9 MPH (8 knots; 4.1 m/s)
gusting to 21 MPH (18 knots; 9.3 m/s)
Visibility: 1.86 miles (2.99 km)
Ceiling: 10000 feet AGL
Clouds: few clouds at 2000 feet AGL
scattered clouds at 2500 feet AGL
few clouds at 3000 feet AGL
broken clouds at 10000 feet AGL
Weather: HZ  (haze)

METAR text: VABB 161530Z 20012KT 3000 HZ FEW020 SCT025 FEW030TCU BKN100 30/26 Q1007 NOSIG
Conditions at: VABB (BOMBAY/SANTACRUZ, IN) observed 1530 UTC 16 June 2019
Temperature: 30.0°C (86°F)
Dewpoint: 26.0°C (79°F) [RH = 79%]
Pressure (altimeter): 29.73 inches Hg (1007.0 mb)
Winds: from the SSW (200 degrees) at 14 MPH (12 knots; 6.2 m/s)
Visibility: 1.86 miles (2.99 km)
Ceiling: 10000 feet AGL
Clouds: few clouds at 2000 feet AGL
scattered clouds at 2500 feet AGL
few clouds at 3000 feet AGL
broken clouds at 10000 feet AGL
Weather: HZ  (haze)

METAR text: VABB 161500Z 20008KT 3000 HZ FEW020 SCT025 BKN100 30/26 Q1006 NOSIG
Conditions at: VABB (BOMBAY/SANTACRUZ, IN) observed 1500 UTC 16 June 2019
Temperature: 30.0°C (86°F)
Dewpoint: 26.0°C (79°F) [RH = 79%]
Pressure (altimeter): 29.70 inches Hg (1006.0 mb)
Winds: from the SSW (200 degrees) at 9 MPH (8 knots; 4.1 m/s)
Visibility: 1.86 miles (2.99 km)
Ceiling: 10000 feet AGL
Clouds: few clouds at 2000 feet AGL
scattered clouds at 2500 feet AGL
broken clouds at 10000 feet AGL
Weather: HZ  (haze)

METAR text: VABB 161430Z 19007KT 3500 HZ FEW020 SCT025 BKN100 30/25 Q1006 BECMG 3000 HZ
Conditions at: VABB (BOMBAY/SANTACRUZ, IN) observed 1430 UTC 16 June 2019
Temperature: 30.0°C (86°F)
Dewpoint: 25.0°C (77°F) [RH = 75%]
Pressure (altimeter): 29.70 inches Hg (1006.0 mb)
Winds: from the S (190 degrees) at 8 MPH (7 knots; 3.6 m/s)
Visibility: 2.17 miles (3.49 km)
Ceiling: 10000 feet AGL
Clouds: few clouds at 2000 feet AGL
scattered clouds at 2500 feet AGL
broken clouds at 10000 feet AGL
Weather: HZ  (haze)

METAR text: VABB 161400Z 20009KT 3500 HZ FEW020 SCT025 30/26 Q1006 NOSIG
Conditions at: VABB (BOMBAY/SANTACRUZ, IN) observed 1400 UTC 16 June 2019
Temperature: 30.0°C (86°F)
Dewpoint: 26.0°C (79°F) [RH = 79%]
Pressure (altimeter): 29.70 inches Hg (1006.0 mb)
Winds: from the SSW (200 degrees) at 10 MPH (9 knots; 4.6 m/s)
Visibility: 2.17 miles (3.49 km)
Ceiling: at least 12,000 feet AGL
Clouds: few clouds at 2000 feet AGL
scattered clouds at 2500 feet AGL
Weather: HZ  (haze)

METAR text: VABB 161330Z 20009G19KT 3500 HZ FEW020 SCT025 30/26 Q1006 NOSIG
Conditions at: VABB (BOMBAY/SANTACRUZ, IN) observed 1330 UTC 16 June 2019
Temperature: 30.0°C (86°F)
Dewpoint: 26.0°C (79°F) [RH = 79%]
Pressure (altimeter): 29.70 inches Hg (1006.0 mb)
Winds: from the SSW (200 degrees) at 10 MPH (9 knots; 4.6 m/s)
gusting to 22 MPH (19 knots; 9.8 m/s)
Visibility: 2.17 miles (3.49 km)
Ceiling: at least 12,000 feet AGL
Clouds: few clouds at 2000 feet AGL
scattered clouds at 2500 feet AGL
Weather: HZ  (haze)

METAR text: VABB 161300Z 20011G21KT 3500 HZ FEW020 SCT025 FEW025TCU 31/26 Q1005 NOSIG
Conditions at: VABB (BOMBAY/SANTACRUZ, IN) observed 1300 UTC 16 June 2019
Temperature: 31.0°C (88°F)
Dewpoint: 26.0°C (79°F) [RH = 75%]
Pressure (altimeter): 29.68 inches Hg (1005.0 mb)
Winds: from the SSW (200 degrees) at 13 MPH (11 knots; 5.7 m/s)
gusting to 24 MPH (21 knots; 10.8 m/s)
Visibility: 2.17 miles (3.49 km)
Ceiling: at least 12,000 feet AGL
Clouds: few clouds at 2000 feet AGL
scattered clouds at 2500 feet AGL
few clouds at 2500 feet AGL
Weather: HZ  (haze)

METAR text: VABB 161230Z 21012G22KT 3500 HZ FEW020 SCT025 FEW030CB 31/26 Q1005 NOSIG
Conditions at: VABB (BOMBAY/SANTACRUZ, IN) observed 1230 UTC 16 June 2019
Temperature: 31.0°C (88°F)
Dewpoint: 26.0°C (79°F) [RH = 75%]
Pressure (altimeter): 29.68 inches Hg (1005.0 mb)
Winds: from the SSW (210 degrees) at 14 MPH (12 knots; 6.2 m/s)
gusting to 25 MPH (22 knots; 11.3 m/s)
Visibility: 2.17 miles (3.49 km)
Ceiling: at least 12,000 feet AGL
Clouds: few clouds at 2000 feet AGL
scattered clouds at 2500 feet AGL
few clouds at 3000 feet AGL
Weather: HZ  (haze)

METAR text: VABB 161200Z 21012KT 3500 HZ FEW020 SCT025 31/26 Q1005 NOSIG
Conditions at: VABB (BOMBAY/SANTACRUZ, IN) observed 1200 UTC 16 June 2019
Temperature: 31.0°C (88°F)
Dewpoint: 26.0°C (79°F) [RH = 75%]
Pressure (altimeter): 29.68 inches Hg (1005.0 mb)
Winds: from the SSW (210 degrees) at 14 MPH (12 knots; 6.2 m/s)
Visibility: 2.17 miles (3.49 km)
Ceiling: at least 12,000 feet AGL
Clouds: few clouds at 2000 feet AGL
scattered clouds at 2500 feet AGL
Weather: HZ  (haze)

METAR text: VABB 161130Z 19010G20KT 3500 HZ SCT018 FEW025TCU BKN090 31/27 Q1005 NOSIG
Conditions at: VABB (BOMBAY/SANTACRUZ, IN) observed 1130 UTC 16 June 2019
Temperature: 31.0°C (88°F)
Dewpoint: 27.0°C (81°F) [RH = 79%]
Pressure (altimeter): 29.68 inches Hg (1005.0 mb)
Winds: from the S (190 degrees) at 12 MPH (10 knots; 5.1 m/s)
gusting to 23 MPH (20 knots; 10.3 m/s)
Visibility: 2.17 miles (3.49 km)
Ceiling: 9000 feet AGL
Clouds: scattered clouds at 1800 feet AGL
few clouds at 2500 feet AGL
broken clouds at 9000 feet AGL
Weather: HZ  (haze)

METAR text: VABB 161100Z 21010G20KT 3000 HZ SCT018 FEW025TCU BKN090 31/27 Q1005 NOSIG
Conditions at: VABB (BOMBAY/SANTACRUZ, IN) observed 1100 UTC 16 June 2019
Temperature: 31.0°C (88°F)
Dewpoint: 27.0°C (81°F) [RH = 79%]
Pressure (altimeter): 29.68 inches Hg (1005.0 mb)
Winds: from the SSW (210 degrees) at 12 MPH (10 knots; 5.1 m/s)
gusting to 23 MPH (20 knots; 10.3 m/s)
Visibility: 1.86 miles (2.99 km)
Ceiling: 9000 feet AGL
Clouds: scattered clouds at 1800 feet AGL
few clouds at 2500 feet AGL
broken clouds at 9000 feet AGL
Weather: HZ  (haze)

METAR text: VABB 161030Z 16007KT 2500 VCSH FEW012 SCT018 FEW030CB BKN090 29/26 Q1005 NOSIG
Conditions at: VABB (BOMBAY/SANTACRUZ, IN) observed 1030 UTC 16 June 2019
Temperature: 29.0°C (84°F)
Dewpoint: 26.0°C (79°F) [RH = 84%]
Pressure (altimeter): 29.68 inches Hg (1005.0 mb)
Winds: from the SSE (160 degrees) at 8 MPH (7 knots; 3.6 m/s)
Visibility: 1.55 miles (2.49 km)
Ceiling: 9000 feet AGL
Clouds: few clouds at 1200 feet AGL
scattered clouds at 1800 feet AGL
few clouds at 3000 feet AGL
broken clouds at 9000 feet AGL
Weather: VCSH  (showers in vicinity)

METAR text: VABB 161000Z 22010G20KT 1200 R27/1200 RA SCT010 SCT018 FEW030CB BKN090 28/24 Q1006 TEMPO 0800 +SHRA
Conditions at: VABB (BOMBAY/SANTACRUZ, IN) observed 1000 UTC 16 June 2019
Temperature: 28.0°C (82°F)
Dewpoint: 24.0°C (75°F) [RH = 79%]
Pressure (altimeter): 29.70 inches Hg (1006.0 mb)
Winds: from the SW (220 degrees) at 12 MPH (10 knots; 5.1 m/s)
gusting to 23 MPH (20 knots; 10.3 m/s)
Visibility: 0.75 miles (1.21 km)
Ceiling: 9000 feet AGL
Clouds: scattered clouds at 1000 feet AGL
scattered clouds at 1800 feet AGL
few clouds at 3000 feet AGL
broken clouds at 9000 feet AGL
Weather: RA  (moderate rain)

METAR text: VABB 160930Z 22013G23KT 2200 RA SCT010 SCT018 FEW030CB BKN090 32/26 Q1006 TEMPO 1500 SHRA
Conditions at: VABB (BOMBAY/SANTACRUZ, IN) observed 0930 UTC 16 June 2019
Temperature: 32.0°C (90°F)
Dewpoint: 26.0°C (79°F) [RH = 71%]
Pressure (altimeter): 29.70 inches Hg (1006.0 mb)
Winds: from the SW (220 degrees) at 15 MPH (13 knots; 6.7 m/s)
gusting to 26 MPH (23 knots; 11.8 m/s)
Visibility: 1.37 miles (2.20 km)
Ceiling: 9000 feet AGL
Clouds: scattered clouds at 1000 feet AGL
scattered clouds at 1800 feet AGL
few clouds at 3000 feet AGL
broken clouds at 9000 feet AGL
Weather: RA  (moderate rain)

METAR text: VABB 160900Z 21018G28KT 3000 VCSH FEW012 SCT018 FEW025TCU BKN090 31/26 Q1006 TEMPO 1500 SHRA
Conditions at: VABB (BOMBAY/SANTACRUZ, IN) observed 0900 UTC 16 June 2019
Temperature: 31.0°C (88°F)
Dewpoint: 26.0°C (79°F) [RH = 75%]
Pressure (altimeter): 29.70 inches Hg (1006.0 mb)
Winds: from the SSW (210 degrees) at 21 MPH (18 knots; 9.3 m/s)
gusting to 32 MPH (28 knots; 14.4 m/s)
Visibility: 1.86 miles (2.99 km)
Ceiling: 9000 feet AGL
Clouds: few clouds at 1200 feet AGL
scattered clouds at 1800 feet AGL
few clouds at 2500 feet AGL
broken clouds at 9000 feet AGL
Weather: VCSH  (showers in vicinity)

METAR text: VABB 160830Z 21012G22KT 3000 -RA SCT018 SCT025 BKN090 32/26 Q1006 TEMPO 1500 SHRA
Conditions at: VABB (BOMBAY/SANTACRUZ, IN) observed 0830 UTC 16 June 2019
Temperature: 32.0°C (90°F)
Dewpoint: 26.0°C (79°F) [RH = 71%]
Pressure (altimeter): 29.70 inches Hg (1006.0 mb)
Winds: from the SSW (210 degrees) at 14 MPH (12 knots; 6.2 m/s)
gusting to 25 MPH (22 knots; 11.3 m/s)
Visibility: 1.86 miles (2.99 km)
Ceiling: 9000 feet AGL
Clouds: scattered clouds at 1800 feet AGL
scattered clouds at 2500 feet AGL
broken clouds at 9000 feet AGL
Weather: -RA  (light rain)

METAR text: VABB 160800Z 20010G20KT 4000 HZ SCT020 SCT025 BKN100 33/26 Q1006 NOSIG
Conditions at: VABB (BOMBAY/SANTACRUZ, IN) observed 0800 UTC 16 June 2019
Temperature: 33.0°C (91°F)
Dewpoint: 26.0°C (79°F) [RH = 67%]
Pressure (altimeter): 29.70 inches Hg (1006.0 mb)
Winds: from the SSW (200 degrees) at 12 MPH (10 knots; 5.1 m/s)
gusting to 23 MPH (20 knots; 10.3 m/s)
Visibility: 2.49 miles (4.01 km)
Ceiling: 10000 feet AGL
Clouds: scattered clouds at 2000 feet AGL
scattered clouds at 2500 feet AGL
broken clouds at 10000 feet AGL
Weather: HZ  (haze)

METAR text: VABB 160730Z 21008G18KT 4000 HZ SCT020 FEW025TCU BKN100 32/26 Q1006 NOSIG
Conditions at: VABB (BOMBAY/SANTACRUZ, IN) observed 0730 UTC 16 June 2019
Temperature: 32.0°C (90°F)
Dewpoint: 26.0°C (79°F) [RH = 71%]
Pressure (altimeter): 29.70 inches Hg (1006.0 mb)
Winds: from the SSW (210 degrees) at 9 MPH (8 knots; 4.1 m/s)
gusting to 21 MPH (18 knots; 9.3 m/s)
Visibility: 2.49 miles (4.01 km)
Ceiling: 10000 feet AGL
Clouds: scattered clouds at 2000 feet AGL
few clouds at 2500 feet AGL
broken clouds at 10000 feet AGL
Weather: HZ  (haze)

METAR text: VABB 160700Z 18012G22KT 4000 HZ SCT020 FEW025TCU BKN100 32/27 Q1006 NOSIG
Conditions at: VABB (BOMBAY/SANTACRUZ, IN) observed 0700 UTC 16 June 2019
Temperature: 32.0°C (90°F)
Dewpoint: 27.0°C (81°F) [RH = 75%]
Pressure (altimeter): 29.70 inches Hg (1006.0 mb)
Winds: from the S (180 degrees) at 14 MPH (12 knots; 6.2 m/s)
gusting to 25 MPH (22 knots; 11.3 m/s)
Visibility: 2.49 miles (4.01 km)
Ceiling: 10000 feet AGL
Clouds: scattered clouds at 2000 feet AGL
few clouds at 2500 feet AGL
broken clouds at 10000 feet AGL
Weather: HZ  (haze)

METAR text: VABB 160630Z 18010G20KT 3500 HZ SCT020 FEW025TCU BKN100 32/27 Q1007 BECMG 4000 HZ
Conditions at: VABB (BOMBAY/SANTACRUZ, IN) observed 0630 UTC 16 June 2019
Temperature: 32.0°C (90°F)
Dewpoint: 27.0°C (81°F) [RH = 75%]
Pressure (altimeter): 29.73 inches Hg (1007.0 mb)
Winds: from the S (180 degrees) at 12 MPH (10 knots; 5.1 m/s)
gusting to 23 MPH (20 knots; 10.3 m/s)
Visibility: 2.17 miles (3.49 km)
Ceiling: 10000 feet AGL
Clouds: scattered clouds at 2000 feet AGL
few clouds at 2500 feet AGL
broken clouds at 10000 feet AGL
Weather: HZ  (haze)

METAR text: VABB 160600Z 17014KT 3500 HZ SCT020 SCT025 BKN100 32/27 Q1007 NOSIG
Conditions at: VABB (BOMBAY/SANTACRUZ, IN) observed 0600 UTC 16 June 2019
Temperature: 32.0°C (90°F)
Dewpoint: 27.0°C (81°F) [RH = 75%]
Pressure (altimeter): 29.73 inches Hg (1007.0 mb)
Winds: from the S (170 degrees) at 16 MPH (14 knots; 7.2 m/s)
Visibility: 2.17 miles (3.49 km)
Ceiling: 10000 feet AGL
Clouds: scattered clouds at 2000 feet AGL
scattered clouds at 2500 feet AGL
broken clouds at 10000 feet AGL
Weather: HZ  (haze)

METAR text: VABB 160530Z 18010G20KT 3000 HZ SCT020 SCT025 BKN100 32/26 Q1007 NOSIG
Conditions at: VABB (BOMBAY/SANTACRUZ, IN) observed 0530 UTC 16 June 2019
Temperature: 32.0°C (90°F)
Dewpoint: 26.0°C (79°F) [RH = 71%]
Pressure (altimeter): 29.73 inches Hg (1007.0 mb)
Winds: from the S (180 degrees) at 12 MPH (10 knots; 5.1 m/s)
gusting to 23 MPH (20 knots; 10.3 m/s)
Visibility: 1.86 miles (2.99 km)
Ceiling: 10000 feet AGL
Clouds: scattered clouds at 2000 feet AGL
scattered clouds at 2500 feet AGL
broken clouds at 10000 feet AGL
Weather: HZ  (haze)

METAR text: VABB 160500Z 20007G17KT 3000 HZ SCT020 FEW025TCU BKN100 31/26 Q1007 NOSIG
Conditions at: VABB (BOMBAY/SANTACRUZ, IN) observed 0500 UTC 16 June 2019
Temperature: 31.0°C (88°F)
Dewpoint: 26.0°C (79°F) [RH = 75%]
Pressure (altimeter): 29.73 inches Hg (1007.0 mb)
Winds: from the SSW (200 degrees) at 8 MPH (7 knots; 3.6 m/s)
gusting to 20 MPH (17 knots; 8.7 m/s)
Visibility: 1.86 miles (2.99 km)
Ceiling: 10000 feet AGL
Clouds: scattered clouds at 2000 feet AGL
few clouds at 2500 feet AGL
broken clouds at 10000 feet AGL
Weather: HZ  (haze)

METAR text: VABB 160430Z 18012KT 3000 HZ SCT020 FEW025TCU BKN100 31/27 Q1007 NOSIG
Conditions at: VABB (BOMBAY/SANTACRUZ, IN) observed 0430 UTC 16 June 2019
Temperature: 31.0°C (88°F)
Dewpoint: 27.0°C (81°F) [RH = 79%]
Pressure (altimeter): 29.73 inches Hg (1007.0 mb)
Winds: from the S (180 degrees) at 14 MPH (12 knots; 6.2 m/s)
Visibility: 1.86 miles (2.99 km)
Ceiling: 10000 feet AGL
Clouds: scattered clouds at 2000 feet AGL
few clouds at 2500 feet AGL
broken clouds at 10000 feet AGL
Weather: HZ  (haze)

METAR text: VABB 160400Z 22010KT 3000 HZ SCT020 FEW025TCU BKN100 31/26 Q1007 NOSIG
Conditions at: VABB (BOMBAY/SANTACRUZ, IN) observed 0400 UTC 16 June 2019
Temperature: 31.0°C (88°F)
Dewpoint: 26.0°C (79°F) [RH = 75%]
Pressure (altimeter): 29.73 inches Hg (1007.0 mb)
Winds: from the SW (220 degrees) at 12 MPH (10 knots; 5.1 m/s)
Visibility: 1.86 miles (2.99 km)
Ceiling: 10000 feet AGL
Clouds: scattered clouds at 2000 feet AGL
few clouds at 2500 feet AGL
broken clouds at 10000 feet AGL
Weather: HZ  (haze)

METAR text: VABB 160330Z 19009KT 3000 HZ SCT020 FEW025TCU BKN100 31/27 Q1007 NOSIG
Conditions at: VABB (BOMBAY/SANTACRUZ, IN) observed 0330 UTC 16 June 2019
Temperature: 31.0°C (88°F)
Dewpoint: 27.0°C (81°F) [RH = 79%]
Pressure (altimeter): 29.73 inches Hg (1007.0 mb)
Winds: from the S (190 degrees) at 10 MPH (9 knots; 4.6 m/s)
Visibility: 1.86 miles (2.99 km)
Ceiling: 10000 feet AGL
Clouds: scattered clouds at 2000 feet AGL
few clouds at 2500 feet AGL
broken clouds at 10000 feet AGL
Weather: HZ  (haze)

METAR text: VABB 160300Z 19010KT 3000 HZ SCT020 FEW025TCU BKN100 30/26 Q1007 NOSIG
Conditions at: VABB (BOMBAY/SANTACRUZ, IN) observed 0300 UTC 16 June 2019
Temperature: 30.0°C (86°F)
Dewpoint: 26.0°C (79°F) [RH = 79%]
Pressure (altimeter): 29.73 inches Hg (1007.0 mb)
Winds: from the S (190 degrees) at 12 MPH (10 knots; 5.1 m/s)
Visibility: 1.86 miles (2.99 km)
Ceiling: 10000 feet AGL
Clouds: scattered clouds at 2000 feet AGL
few clouds at 2500 feet AGL
broken clouds at 10000 feet AGL
Weather: HZ  (haze)

METAR text: VABB 160230Z 20009KT 3000 VCSH SCT018 FEW025TCU BKN100 30/26 Q1006 TEMPO 1500 SHRA
Conditions at: VABB (BOMBAY/SANTACRUZ, IN) observed 0230 UTC 16 June 2019
Temperature: 30.0°C (86°F)
Dewpoint: 26.0°C (79°F) [RH = 79%]
Pressure (altimeter): 29.70 inches Hg (1006.0 mb)
Winds: from the SSW (200 degrees) at 10 MPH (9 knots; 4.6 m/s)
Visibility: 1.86 miles (2.99 km)
Ceiling: 10000 feet AGL
Clouds: scattered clouds at 1800 feet AGL
few clouds at 2500 feet AGL
broken clouds at 10000 feet AGL
Weather: VCSH  (showers in vicinity)

METAR text: VABB 160200Z 20009G19KT 3000 HZ SCT018 SCT025 FEW025TCU 30/26 Q1006 NOSIG
Conditions at: VABB (BOMBAY/SANTACRUZ, IN) observed 0200 UTC 16 June 2019
Temperature: 30.0°C (86°F)
Dewpoint: 26.0°C (79°F) [RH = 79%]
Pressure (altimeter): 29.70 inches Hg (1006.0 mb)
Winds: from the SSW (200 degrees) at 10 MPH (9 knots; 4.6 m/s)
gusting to 22 MPH (19 knots; 9.8 m/s)
Visibility: 1.86 miles (2.99 km)
Ceiling: at least 12,000 feet AGL
Clouds: scattered clouds at 1800 feet AGL
scattered clouds at 2500 feet AGL
few clouds at 2500 feet AGL
Weather: HZ  (haze)

METAR text: VABB 160130Z 20012KT 3000 HZ SCT018 SCT025 FEW025TCU 30/26 Q1006 NOSIG
Conditions at: VABB (BOMBAY/SANTACRUZ, IN) observed 0130 UTC 16 June 2019
Temperature: 30.0°C (86°F)
Dewpoint: 26.0°C (79°F) [RH = 79%]
Pressure (altimeter): 29.70 inches Hg (1006.0 mb)
Winds: from the SSW (200 degrees) at 14 MPH (12 knots; 6.2 m/s)
Visibility: 1.86 miles (2.99 km)
Ceiling: at least 12,000 feet AGL
Clouds: scattered clouds at 1800 feet AGL
scattered clouds at 2500 feet AGL
few clouds at 2500 feet AGL
Weather: HZ  (haze)

METAR text: VABB 160100Z 21008KT 3000 HZ FEW012 SCT018 FEW025TCU BKN100 29/26 Q1006 NOSIG
Conditions at: VABB (BOMBAY/SANTACRUZ, IN) observed 0100 UTC 16 June 2019
Temperature: 29.0°C (84°F)
Dewpoint: 26.0°C (79°F) [RH = 84%]
Pressure (altimeter): 29.70 inches Hg (1006.0 mb)
Winds: from the SSW (210 degrees) at 9 MPH (8 knots; 4.1 m/s)
Visibility: 1.86 miles (2.99 km)
Ceiling: 10000 feet AGL
Clouds: few clouds at 1200 feet AGL
scattered clouds at 1800 feet AGL
few clouds at 2500 feet AGL
broken clouds at 10000 feet AGL
Weather: HZ  (haze)

METAR text: VABB 160030Z 20010KT 3000 HZ FEW012 SCT018 FEW025TCU BKN090 29/26 Q1005 TEMPO 2000 SHRA
Conditions at: VABB (BOMBAY/SANTACRUZ, IN) observed 0030 UTC 16 June 2019
Temperature: 29.0°C (84°F)
Dewpoint: 26.0°C (79°F) [RH = 84%]
Pressure (altimeter): 29.68 inches Hg (1005.0 mb)
Winds: from the SSW (200 degrees) at 12 MPH (10 knots; 5.1 m/s)
Visibility: 1.86 miles (2.99 km)
Ceiling: 9000 feet AGL
Clouds: few clouds at 1200 feet AGL
scattered clouds at 1800 feet AGL
few clouds at 2500 feet AGL
broken clouds at 9000 feet AGL
Weather: HZ  (haze)

METAR text: VABB 160000Z 19008KT 3000 -DZ FEW012 SCT018 FEW025TCU BKN090 29/26 Q1005 TEMPO 2000 SHRA
Conditions at: VABB (BOMBAY/SANTACRUZ, IN) observed 0000 UTC 16 June 2019
Temperature: 29.0°C (84°F)
Dewpoint: 26.0°C (79°F) [RH = 84%]
Pressure (altimeter): 29.68 inches Hg (1005.0 mb)
Winds: from the S (190 degrees) at 9 MPH (8 knots; 4.1 m/s)
Visibility: 1.86 miles (2.99 km)
Ceiling: 9000 feet AGL
Clouds: few clouds at 1200 feet AGL
scattered clouds at 1800 feet AGL
few clouds at 2500 feet AGL
broken clouds at 9000 feet AGL
Weather: -DZ  (light drizzle)

METAR text: VABB 152330Z 19009KT 3000 -DZ FEW012 SCT018 FEW025TCU BKN090 29/26 Q1005 TEMPO 2000 SHRA
Conditions at: VABB (BOMBAY/SANTACRUZ, IN) observed 2330 UTC 15 June 2019
Temperature: 29.0°C (84°F)
Dewpoint: 26.0°C (79°F) [RH = 84%]
Pressure (altimeter): 29.68 inches Hg (1005.0 mb)
Winds: from the S (190 degrees) at 10 MPH (9 knots; 4.6 m/s)
Visibility: 1.86 miles (2.99 km)
Ceiling: 9000 feet AGL
Clouds: few clouds at 1200 feet AGL
scattered clouds at 1800 feet AGL
few clouds at 2500 feet AGL
broken clouds at 9000 feet AGL
Weather: -DZ  (light drizzle)

METAR text: VABB 152300Z 19010KT 3500 -RA FEW012 BKN018 FEW025TCU BKN090 29/26 Q1005 TEMPO 2000 SHRA
Conditions at: VABB (BOMBAY/SANTACRUZ, IN) observed 2300 UTC 15 June 2019
Temperature: 29.0°C (84°F)
Dewpoint: 26.0°C (79°F) [RH = 84%]
Pressure (altimeter): 29.68 inches Hg (1005.0 mb)
Winds: from the S (190 degrees) at 12 MPH (10 knots; 5.1 m/s)
Visibility: 2.17 miles (3.49 km)
Ceiling: 1800 feet AGL
Clouds: few clouds at 1200 feet AGL
broken clouds at 1800 feet AGL
few clouds at 2500 feet AGL
broken clouds at 9000 feet AGL
Weather: -RA  (light rain)

METAR text: VABB 152230Z 19008KT 3500 HZ FEW012 BKN018 FEW025TCU 29/26 Q1005 TEMPO 2000 SHRA
Conditions at: VABB (BOMBAY/SANTACRUZ, IN) observed 2230 UTC 15 June 2019
Temperature: 29.0°C (84°F)
Dewpoint: 26.0°C (79°F) [RH = 84%]
Pressure (altimeter): 29.68 inches Hg (1005.0 mb)
Winds: from the S (190 degrees) at 9 MPH (8 knots; 4.1 m/s)
Visibility: 2.17 miles (3.49 km)
Ceiling: 1800 feet AGL
Clouds: few clouds at 1200 feet AGL
broken clouds at 1800 feet AGL
few clouds at 2500 feet AGL
Weather: HZ  (haze)

METAR text: VABB 152200Z 19010KT 3500 DZ FEW012 BKN018 FEW025TCU 29/26 Q1005 TEMPO 2000 SHRA
Conditions at: VABB (BOMBAY/SANTACRUZ, IN) observed 2200 UTC 15 June 2019
Temperature: 29.0°C (84°F)
Dewpoint: 26.0°C (79°F) [RH = 84%]
Pressure (altimeter): 29.68 inches Hg (1005.0 mb)
Winds: from the S (190 degrees) at 12 MPH (10 knots; 5.1 m/s)
Visibility: 2.17 miles (3.49 km)
Ceiling: 1800 feet AGL
Clouds: few clouds at 1200 feet AGL
broken clouds at 1800 feet AGL
few clouds at 2500 feet AGL
Weather: DZ  (moderate drizzle)

METAR text: VABB 152130Z 20006KT 4000 DZ FEW012 BKN018 FEW025TCU 29/26 Q1004 TEMPO 2000 +SHRA
Conditions at: VABB (BOMBAY/SANTACRUZ, IN) observed 2130 UTC 15 June 2019
Temperature: 29.0°C (84°F)
Dewpoint: 26.0°C (79°F) [RH = 84%]
Pressure (altimeter): 29.65 inches Hg (1004.0 mb)
Winds: from the SSW (200 degrees) at 7 MPH (6 knots; 3.1 m/s)
Visibility: 2.49 miles (4.01 km)
Ceiling: 1800 feet AGL
Clouds: few clouds at 1200 feet AGL
broken clouds at 1800 feet AGL
few clouds at 2500 feet AGL
Weather: DZ  (moderate drizzle)

METAR text: VABB 152100Z 20007KT 4000 DZ FEW012 BKN018 FEW025TCU 30/27 Q1005 TEMPO 2000 +SHRA
Conditions at: VABB (BOMBAY/SANTACRUZ, IN) observed 2100 UTC 15 June 2019
Temperature: 30.0°C (86°F)
Dewpoint: 27.0°C (81°F) [RH = 84%]
Pressure (altimeter): 29.68 inches Hg (1005.0 mb)
Winds: from the SSW (200 degrees) at 8 MPH (7 knots; 3.6 m/s)
Visibility: 2.49 miles (4.01 km)
Ceiling: 1800 feet AGL
Clouds: few clouds at 1200 feet AGL
broken clouds at 1800 feet AGL
few clouds at 2500 feet AGL
Weather: DZ  (moderate drizzle)

METAR text: VABB 152030Z 20010G20KT 4000 DZ FEW012 BKN018 FEW025TCU 30/27 Q1005 TEMPO 2000 +SHRA
Conditions at: VABB (BOMBAY/SANTACRUZ, IN) observed 2030 UTC 15 June 2019
Temperature: 30.0°C (86°F)
Dewpoint: 27.0°C (81°F) [RH = 84%]
Pressure (altimeter): 29.68 inches Hg (1005.0 mb)
Winds: from the SSW (200 degrees) at 12 MPH (10 knots; 5.1 m/s)
gusting to 23 MPH (20 knots; 10.3 m/s)
Visibility: 2.49 miles (4.01 km)
Ceiling: 1800 feet AGL
Clouds: few clouds at 1200 feet AGL
broken clouds at 1800 feet AGL
few clouds at 2500 feet AGL
Weather: DZ  (moderate drizzle)

METAR text: VABB 152000Z 19010G20KT 3000 DZ FEW012 BKN018 FEW025TCU 30/27 Q1005 BECMG 4000 DZ
Conditions at: VABB (BOMBAY/SANTACRUZ, IN) observed 2000 UTC 15 June 2019
Temperature: 30.0°C (86°F)
Dewpoint: 27.0°C (81°F) [RH = 84%]
Pressure (altimeter): 29.68 inches Hg (1005.0 mb)
Winds: from the S (190 degrees) at 12 MPH (10 knots; 5.1 m/s)
gusting to 23 MPH (20 knots; 10.3 m/s)
Visibility: 1.86 miles (2.99 km)
Ceiling: 1800 feet AGL
Clouds: few clouds at 1200 feet AGL
broken clouds at 1800 feet AGL
few clouds at 2500 feet AGL
Weather: DZ  (moderate drizzle)

METAR text: VABB 151930Z 19010KT 3000 -RA FEW012 BKN018 FEW025TCU 29/27 Q1005 TEMPO 2000 +SHRA
Conditions at: VABB (BOMBAY/SANTACRUZ, IN) observed 1930 UTC 15 June 2019
Temperature: 29.0°C (84°F)
Dewpoint: 27.0°C (81°F) [RH = 89%]
Pressure (altimeter): 29.68 inches Hg (1005.0 mb)
Winds: from the S (190 degrees) at 12 MPH (10 knots; 5.1 m/s)
Visibility: 1.86 miles (2.99 km)
Ceiling: 1800 feet AGL
Clouds: few clouds at 1200 feet AGL
broken clouds at 1800 feet AGL
few clouds at 2500 feet AGL
Weather: -RA  (light rain)

METAR text: VABB 151900Z 19012G27KT 3000 -RA FEW012 BKN018 FEW025TCU 30/27 Q1006 TEMPO 2000 +SHRA
Conditions at: VABB (BOMBAY/SANTACRUZ, IN) observed 1900 UTC 15 June 2019
Temperature: 30.0°C (86°F)
Dewpoint: 27.0°C (81°F) [RH = 84%]
Pressure (altimeter): 29.70 inches Hg (1006.0 mb)
Winds: from the S (190 degrees) at 14 MPH (12 knots; 6.2 m/s)
gusting to 31 MPH (27 knots; 13.9 m/s)
Visibility: 1.86 miles (2.99 km)
Ceiling: 1800 feet AGL
Clouds: few clouds at 1200 feet AGL
broken clouds at 1800 feet AGL
few clouds at 2500 feet AGL
Weather: -RA  (light rain)

METAR text: VABB 151830Z 19008G18KT 3000 -RA FEW012 BKN018 FEW025TCU 29/27 Q1006 TEMPO 2000 +SHRA
Conditions at: VABB (BOMBAY/SANTACRUZ, IN) observed 1830 UTC 15 June 2019
Temperature: 29.0°C (84°F)
Dewpoint: 27.0°C (81°F) [RH = 89%]
Pressure (altimeter): 29.70 inches Hg (1006.0 mb)
Winds: from the S (190 degrees) at 9 MPH (8 knots; 4.1 m/s)
gusting to 21 MPH (18 knots; 9.3 m/s)
Visibility: 1.86 miles (2.99 km)
Ceiling: 1800 feet AGL
Clouds: few clouds at 1200 feet AGL
broken clouds at 1800 feet AGL
few clouds at 2500 feet AGL
Weather: -RA  (light rain)

METAR text: VABB 151800Z 16009KT 3000 -RA FEW012 BKN018 FEW025TCU 29/27 Q1006 TEMPO 2000 +SHRA
Conditions at: VABB (BOMBAY/SANTACRUZ, IN) observed 1800 UTC 15 June 2019
Temperature: 29.0°C (84°F)
Dewpoint: 27.0°C (81°F) [RH = 89%]
Pressure (altimeter): 29.70 inches Hg (1006.0 mb)
Winds: from the SSE (160 degrees) at 10 MPH (9 knots; 4.6 m/s)
Visibility: 1.86 miles (2.99 km)
Ceiling: 1800 feet AGL
Clouds: few clouds at 1200 feet AGL
broken clouds at 1800 feet AGL
few clouds at 2500 feet AGL
Weather: -RA  (light rain)

METAR text: VABB 151730Z 17010G20KT 3000 -RA FEW012 BKN018 FEW025TCU 30/27 Q1006 TEMPO 2000 +SHRA
Conditions at: VABB (BOMBAY/SANTACRUZ, IN) observed 1730 UTC 15 June 2019
Temperature: 30.0°C (86°F)
Dewpoint: 27.0°C (81°F) [RH = 84%]
Pressure (altimeter): 29.70 inches Hg (1006.0 mb)
Winds: from the S (170 degrees) at 12 MPH (10 knots; 5.1 m/s)
gusting to 23 MPH (20 knots; 10.3 m/s)
Visibility: 1.86 miles (2.99 km)
Ceiling: 1800 feet AGL
Clouds: few clouds at 1200 feet AGL
broken clouds at 1800 feet AGL
few clouds at 2500 feet AGL
Weather: -RA  (light rain)

METAR text: VABB 151700Z 19010KT 3000 -RA FEW012 BKN018 FEW025TCU 30/27 Q1006 TEMPO 2000 +SHRA
Conditions at: VABB (BOMBAY/SANTACRUZ, IN) observed 1700 UTC 15 June 2019
Temperature: 30.0°C (86°F)
Dewpoint: 27.0°C (81°F) [RH = 84%]
Pressure (altimeter): 29.70 inches Hg (1006.0 mb)
Winds: from the S (190 degrees) at 12 MPH (10 knots; 5.1 m/s)
Visibility: 1.86 miles (2.99 km)
Ceiling: 1800 feet AGL
Clouds: few clouds at 1200 feet AGL
broken clouds at 1800 feet AGL
few clouds at 2500 feet AGL
Weather: -RA  (light rain)

METAR text: VABB 151630Z 20011KT 3000 -DZ FEW012 SCT018 FEW030CB BKN090 30/27 Q1006 NOSIG
Conditions at: VABB (BOMBAY/SANTACRUZ, IN) observed 1630 UTC 15 June 2019
Temperature: 30.0°C (86°F)
Dewpoint: 27.0°C (81°F) [RH = 84%]
Pressure (altimeter): 29.70 inches Hg (1006.0 mb)
Winds: from the SSW (200 degrees) at 13 MPH (11 knots; 5.7 m/s)
Visibility: 1.86 miles (2.99 km)
Ceiling: 9000 feet AGL
Clouds: few clouds at 1200 feet AGL
scattered clouds at 1800 feet AGL
few clouds at 3000 feet AGL
broken clouds at 9000 feet AGL
Weather: -DZ  (light drizzle)

METAR text: VABB 151600Z 19006KT 2500 HZ FEW012 SCT018 FEW025TCU BKN090 30/27 Q1006 BECMG 3000 HZ
Conditions at: VABB (BOMBAY/SANTACRUZ, IN) observed 1600 UTC 15 June 2019
Temperature: 30.0°C (86°F)
Dewpoint: 27.0°C (81°F) [RH = 84%]
Pressure (altimeter): 29.70 inches Hg (1006.0 mb)
Winds: from the S (190 degrees) at 7 MPH (6 knots; 3.1 m/s)
Visibility: 1.55 miles (2.49 km)
Ceiling: 9000 feet AGL
Clouds: few clouds at 1200 feet AGL
scattered clouds at 1800 feet AGL
few clouds at 2500 feet AGL
broken clouds at 9000 feet AGL
Weather: HZ  (haze)

METAR text: VABB 151530Z 18012KT 2400 -DZ FEW012 SCT018 FEW025TCU BKN090 30/26 Q1006 TEMPO 1500 RA
Conditions at: VABB (BOMBAY/SANTACRUZ, IN) observed 1530 UTC 15 June 2019
Temperature: 30.0°C (86°F)
Dewpoint: 26.0°C (79°F) [RH = 79%]
Pressure (altimeter): 29.70 inches Hg (1006.0 mb)
Winds: from the S (180 degrees) at 14 MPH (12 knots; 6.2 m/s)
Visibility: 1.49 miles (2.40 km)
Ceiling: 9000 feet AGL
Clouds: few clouds at 1200 feet AGL
scattered clouds at 1800 feet AGL
few clouds at 2500 feet AGL
broken clouds at 9000 feet AGL
Weather: -DZ  (light drizzle)

METAR text: VABB 151500Z 18010G20KT 2200 -RA FEW012 SCT018 FEW025TCU BKN090 30/27 Q1005 TEMPO 1500 SHRA
Conditions at: VABB (BOMBAY/SANTACRUZ, IN) observed 1500 UTC 15 June 2019
Temperature: 30.0°C (86°F)
Dewpoint: 27.0°C (81°F) [RH = 84%]
Pressure (altimeter): 29.68 inches Hg (1005.0 mb)
Winds: from the S (180 degrees) at 12 MPH (10 knots; 5.1 m/s)
gusting to 23 MPH (20 knots; 10.3 m/s)
Visibility: 1.37 miles (2.20 km)
Ceiling: 9000 feet AGL
Clouds: few clouds at 1200 feet AGL
scattered clouds at 1800 feet AGL
few clouds at 2500 feet AGL
broken clouds at 9000 feet AGL
Weather: -RA  (light rain)

METAR text: VABB 151430Z 18011KT 2200 -RA FEW012 SCT018 FEW025TCU BKN090 30/27 Q1005 TEMPO 1500 SHRA
Conditions at: VABB (BOMBAY/SANTACRUZ, IN) observed 1430 UTC 15 June 2019
Temperature: 30.0°C (86°F)
Dewpoint: 27.0°C (81°F) [RH = 84%]
Pressure (altimeter): 29.68 inches Hg (1005.0 mb)
Winds: from the S (180 degrees) at 13 MPH (11 knots; 5.7 m/s)
Visibility: 1.37 miles (2.20 km)
Ceiling: 9000 feet AGL
Clouds: few clouds at 1200 feet AGL
scattered clouds at 1800 feet AGL
few clouds at 2500 feet AGL
broken clouds at 9000 feet AGL
Weather: -RA  (light rain)

METAR text: VABB 151400Z 19009KT 2100 -RA FEW012 SCT018 FEW030CB BKN090 30/27 Q1005 TEMPO 1500 SHRA
Conditions at: VABB (BOMBAY/SANTACRUZ, IN) observed 1400 UTC 15 June 2019
Temperature: 30.0°C (86°F)
Dewpoint: 27.0°C (81°F) [RH = 84%]
Pressure (altimeter): 29.68 inches Hg (1005.0 mb)
Winds: from the S (190 degrees) at 10 MPH (9 knots; 4.6 m/s)
Visibility: 1.30 miles (2.09 km)
Ceiling: 9000 feet AGL
Clouds: few clouds at 1200 feet AGL
scattered clouds at 1800 feet AGL
few clouds at 3000 feet AGL
broken clouds at 9000 feet AGL
Weather: -RA  (light rain)

METAR text: VABB 151330Z 19013G23KT 2500 DZ FEW012 SCT018 FEW030CB BKN090 30/27 Q1004 TEMPO 1500 SHRA
Conditions at: VABB (BOMBAY/SANTACRUZ, IN) observed 1330 UTC 15 June 2019
Temperature: 30.0°C (86°F)
Dewpoint: 27.0°C (81°F) [RH = 84%]
Pressure (altimeter): 29.65 inches Hg (1004.0 mb)
Winds: from the S (190 degrees) at 15 MPH (13 knots; 6.7 m/s)
gusting to 26 MPH (23 knots; 11.8 m/s)
Visibility: 1.55 miles (2.49 km)
Ceiling: 9000 feet AGL
Clouds: few clouds at 1200 feet AGL
scattered clouds at 1800 feet AGL
few clouds at 3000 feet AGL
broken clouds at 9000 feet AGL
Weather: DZ  (moderate drizzle)

METAR text: VABB 151300Z 18012KT 3000 HZ SCT018 SCT025 FEW030CB BKN090 30/27 Q1004 NOSIG
Conditions at: VABB (BOMBAY/SANTACRUZ, IN) observed 1300 UTC 15 June 2019
Temperature: 30.0°C (86°F)
Dewpoint: 27.0°C (81°F) [RH = 84%]
Pressure (altimeter): 29.65 inches Hg (1004.0 mb)
Winds: from the S (180 degrees) at 14 MPH (12 knots; 6.2 m/s)
Visibility: 1.86 miles (2.99 km)
Ceiling: 9000 feet AGL
Clouds: scattered clouds at 1800 feet AGL
scattered clouds at 2500 feet AGL
few clouds at 3000 feet AGL
broken clouds at 9000 feet AGL
Weather: HZ  (haze)

METAR text: VABB 151230Z 19009KT 3000 VCSH FEW012 SCT018 FEW030CB BKN090 30/27 Q1003 NOSIG
Conditions at: VABB (BOMBAY/SANTACRUZ, IN) observed 1230 UTC 15 June 2019
Temperature: 30.0°C (86°F)
Dewpoint: 27.0°C (81°F) [RH = 84%]
Pressure (altimeter): 29.62 inches Hg (1003.0 mb)
Winds: from the S (190 degrees) at 10 MPH (9 knots; 4.6 m/s)
Visibility: 1.86 miles (2.99 km)
Ceiling: 9000 feet AGL
Clouds: few clouds at 1200 feet AGL
scattered clouds at 1800 feet AGL
few clouds at 3000 feet AGL
broken clouds at 9000 feet AGL
Weather: VCSH  (showers in vicinity)

METAR text: VABB 151200Z 20011G23KT 3000 -RA SCT018 SCT025 FEW030CB BKN090 31/27 Q1003 TEMPO 1500 SHRA
Conditions at: VABB (BOMBAY/SANTACRUZ, IN) observed 1200 UTC 15 June 2019
Temperature: 31.0°C (88°F)
Dewpoint: 27.0°C (81°F) [RH = 79%]
Pressure (altimeter): 29.62 inches Hg (1003.0 mb)
Winds: from the SSW (200 degrees) at 13 MPH (11 knots; 5.7 m/s)
gusting to 26 MPH (23 knots; 11.8 m/s)
Visibility: 1.86 miles (2.99 km)
Ceiling: 9000 feet AGL
Clouds: scattered clouds at 1800 feet AGL
scattered clouds at 2500 feet AGL
few clouds at 3000 feet AGL
broken clouds at 9000 feet AGL
Weather: -RA  (light rain)

METAR text: VABB 151130Z 18006KT 3000 VCSH SCT018 SCT025 FEW030CB BKN090 29/27 Q1004 TEMPO 2000 SHRA
Conditions at: VABB (BOMBAY/SANTACRUZ, IN) observed 1130 UTC 15 June 2019
Temperature: 29.0°C (84°F)
Dewpoint: 27.0°C (81°F) [RH = 89%]
Pressure (altimeter): 29.65 inches Hg (1004.0 mb)
Winds: from the S (180 degrees) at 7 MPH (6 knots; 3.1 m/s)
Visibility: 1.86 miles (2.99 km)
Ceiling: 9000 feet AGL
Clouds: scattered clouds at 1800 feet AGL
scattered clouds at 2500 feet AGL
few clouds at 3000 feet AGL
broken clouds at 9000 feet AGL
Weather: VCSH  (showers in vicinity)

METAR text: VABB 151100Z 18009KT 2100 -RA SCT010 SCT018 FEW030CB BKN090 27/25 Q1004 TEMPO 1500 SHRA
Conditions at: VABB (BOMBAY/SANTACRUZ, IN) observed 1100 UTC 15 June 2019
Temperature: 27.0°C (81°F)
Dewpoint: 25.0°C (77°F) [RH = 89%]
Pressure (altimeter): 29.65 inches Hg (1004.0 mb)
Winds: from the S (180 degrees) at 10 MPH (9 knots; 4.6 m/s)
Visibility: 1.30 miles (2.09 km)
Ceiling: 9000 feet AGL
Clouds: scattered clouds at 1000 feet AGL
scattered clouds at 1800 feet AGL
few clouds at 3000 feet AGL
broken clouds at 9000 feet AGL
Weather: -RA  (light rain)

METAR text: VABB 151030Z 19013G23KT 3500 VCSH SCT018 SCT025 FEW030CB BKN090 32/26 Q1003 TEMPO 3000 -SHRA
Conditions at: VABB (BOMBAY/SANTACRUZ, IN) observed 1030 UTC 15 June 2019
Temperature: 32.0°C (90°F)
Dewpoint: 26.0°C (79°F) [RH = 71%]
Pressure (altimeter): 29.62 inches Hg (1003.0 mb)
Winds: from the S (190 degrees) at 15 MPH (13 knots; 6.7 m/s)
gusting to 26 MPH (23 knots; 11.8 m/s)
Visibility: 2.17 miles (3.49 km)
Ceiling: 9000 feet AGL
Clouds: scattered clouds at 1800 feet AGL
scattered clouds at 2500 feet AGL
few clouds at 3000 feet AGL
broken clouds at 9000 feet AGL
Weather: VCSH  (showers in vicinity)

METAR text: VABB 151000Z 19012G22KT 3500 HZ SCT018 SCT025 FEW030CB BKN090 32/27 Q1004 NOSIG
Conditions at: VABB (BOMBAY/SANTACRUZ, IN) observed 1000 UTC 15 June 2019
Temperature: 32.0°C (90°F)
Dewpoint: 27.0°C (81°F) [RH = 75%]
Pressure (altimeter): 29.65 inches Hg (1004.0 mb)
Winds: from the S (190 degrees) at 14 MPH (12 knots; 6.2 m/s)
gusting to 25 MPH (22 knots; 11.3 m/s)
Visibility: 2.17 miles (3.49 km)
Ceiling: 9000 feet AGL
Clouds: scattered clouds at 1800 feet AGL
scattered clouds at 2500 feet AGL
few clouds at 3000 feet AGL
broken clouds at 9000 feet AGL
Weather: HZ  (haze)

METAR text: VABB 150930Z 19013KT 3500 HZ SCT018 SCT025 FEW030CB BKN090 32/28 Q1004 NOSIG
Conditions at: VABB (BOMBAY/SANTACRUZ, IN) observed 0930 UTC 15 June 2019
Temperature: 32.0°C (90°F)
Dewpoint: 28.0°C (82°F) [RH = 80%]
Pressure (altimeter): 29.65 inches Hg (1004.0 mb)
Winds: from the S (190 degrees) at 15 MPH (13 knots; 6.7 m/s)
Visibility: 2.17 miles (3.49 km)
Ceiling: 9000 feet AGL
Clouds: scattered clouds at 1800 feet AGL
scattered clouds at 2500 feet AGL
few clouds at 3000 feet AGL
broken clouds at 9000 feet AGL
Weather: HZ  (haze)

METAR text: VABB 150900Z 20017G27KT 3500 HZ FEW018 SCT025 FEW030CB BKN090 32/26 Q1004 TEMPO 1500 SHRA
Conditions at: VABB (BOMBAY/SANTACRUZ, IN) observed 0900 UTC 15 June 2019
Temperature: 32.0°C (90°F)
Dewpoint: 26.0°C (79°F) [RH = 71%]
Pressure (altimeter): 29.65 inches Hg (1004.0 mb)
Winds: from the SSW (200 degrees) at 20 MPH (17 knots; 8.7 m/s)
gusting to 31 MPH (27 knots; 13.9 m/s)
Visibility: 2.17 miles (3.49 km)
Ceiling: 9000 feet AGL
Clouds: few clouds at 1800 feet AGL
scattered clouds at 2500 feet AGL
few clouds at 3000 feet AGL
broken clouds at 9000 feet AGL
Weather: HZ  (haze)

METAR text: VABB 150830Z 20014KT 3000 HZ SCT018 SCT025 FEW030CB BKN090 32/26 Q1004 TEMPO 1500 SHRA
Conditions at: VABB (BOMBAY/SANTACRUZ, IN) observed 0830 UTC 15 June 2019
Temperature: 32.0°C (90°F)
Dewpoint: 26.0°C (79°F) [RH = 71%]
Pressure (altimeter): 29.65 inches Hg (1004.0 mb)
Winds: from the SSW (200 degrees) at 16 MPH (14 knots; 7.2 m/s)
Visibility: 1.86 miles (2.99 km)
Ceiling: 9000 feet AGL
Clouds: scattered clouds at 1800 feet AGL
scattered clouds at 2500 feet AGL
few clouds at 3000 feet AGL
broken clouds at 9000 feet AGL
Weather: HZ  (haze)

METAR text: VABB 150800Z 18016KT 3000 FU FEW008 SCT018 FEW025TCU BKN080 31/27 Q1004 TEMPO 2000 SHRA
Conditions at: VABB (BOMBAY/SANTACRUZ, IN) observed 0800 UTC 15 June 2019
Temperature: 31.0°C (88°F)
Dewpoint: 27.0°C (81°F) [RH = 79%]
Pressure (altimeter): 29.65 inches Hg (1004.0 mb)
Winds: from the S (180 degrees) at 18 MPH (16 knots; 8.2 m/s)
Visibility: 1.86 miles (2.99 km)
Ceiling: 8000 feet AGL
Clouds: few clouds at 800 feet AGL
scattered clouds at 1800 feet AGL
few clouds at 2500 feet AGL
broken clouds at 8000 feet AGL
Weather: FU  (smoke)

METAR text: VABB 150730Z 20012G22KT 3000 FU FEW008 SCT018 FEW025TCU BKN080 32/27 Q1005 TEMPO 2000 +SHRA
Conditions at: VABB (BOMBAY/SANTACRUZ, IN) observed 0730 UTC 15 June 2019
Temperature: 32.0°C (90°F)
Dewpoint: 27.0°C (81°F) [RH = 75%]
Pressure (altimeter): 29.68 inches Hg (1005.0 mb)
Winds: from the SSW (200 degrees) at 14 MPH (12 knots; 6.2 m/s)
gusting to 25 MPH (22 knots; 11.3 m/s)
Visibility: 1.86 miles (2.99 km)
Ceiling: 8000 feet AGL
Clouds: few clouds at 800 feet AGL
scattered clouds at 1800 feet AGL
few clouds at 2500 feet AGL
broken clouds at 8000 feet AGL
Weather: FU  (smoke)

METAR text: VABB 150700Z 18016G26KT 3000 FU FEW008 SCT018 FEW030CB BKN080 31/27 Q1005 TEMPO 2000 +SHRA
Conditions at: VABB (BOMBAY/SANTACRUZ, IN) observed 0700 UTC 15 June 2019
Temperature: 31.0°C (88°F)
Dewpoint: 27.0°C (81°F) [RH = 79%]
Pressure (altimeter): 29.68 inches Hg (1005.0 mb)
Winds: from the S (180 degrees) at 18 MPH (16 knots; 8.2 m/s)
gusting to 30 MPH (26 knots; 13.4 m/s)
Visibility: 1.86 miles (2.99 km)
Ceiling: 8000 feet AGL
Clouds: few clouds at 800 feet AGL
scattered clouds at 1800 feet AGL
few clouds at 3000 feet AGL
broken clouds at 8000 feet AGL
Weather: FU  (smoke)

METAR text: VABB 150630Z 19014KT 3000 FU FEW008 SCT018 FEW030CB BKN080 31/27 Q1005 TEMPO 2000 +SHRA
Conditions at: VABB (BOMBAY/SANTACRUZ, IN) observed 0630 UTC 15 June 2019
Temperature: 31.0°C (88°F)
Dewpoint: 27.0°C (81°F) [RH = 79%]
Pressure (altimeter): 29.68 inches Hg (1005.0 mb)
Winds: from the S (190 degrees) at 16 MPH (14 knots; 7.2 m/s)
Visibility: 1.86 miles (2.99 km)
Ceiling: 8000 feet AGL
Clouds: few clouds at 800 feet AGL
scattered clouds at 1800 feet AGL
few clouds at 3000 feet AGL
broken clouds at 8000 feet AGL
Weather: FU  (smoke)

METAR text: VABB 150600Z 21007KT 3000 FU FEW008 SCT018 FEW030CB BKN080 31/26 Q1005 TEMPO 2000 +SHRA
Conditions at: VABB (BOMBAY/SANTACRUZ, IN) observed 0600 UTC 15 June 2019
Temperature: 31.0°C (88°F)
Dewpoint: 26.0°C (79°F) [RH = 75%]
Pressure (altimeter): 29.68 inches Hg (1005.0 mb)
Winds: from the SSW (210 degrees) at 8 MPH (7 knots; 3.6 m/s)
Visibility: 1.86 miles (2.99 km)
Ceiling: 8000 feet AGL
Clouds: few clouds at 800 feet AGL
scattered clouds at 1800 feet AGL
few clouds at 3000 feet AGL
broken clouds at 8000 feet AGL
Weather: FU  (smoke)

METAR text: VABB 150530Z 18005KT 3000 FU FEW008 SCT018 FEW025TCU OVC070 31/27 Q1005 TEMPO 2000 +SHRA
Conditions at: VABB (BOMBAY/SANTACRUZ, IN) observed 0530 UTC 15 June 2019
Temperature: 31.0°C (88°F)
Dewpoint: 27.0°C (81°F) [RH = 79%]
Pressure (altimeter): 29.68 inches Hg (1005.0 mb)
Winds: from the S (180 degrees) at 6 MPH (5 knots; 2.6 m/s)
Visibility: 1.86 miles (2.99 km)
Ceiling: 7000 feet AGL
Clouds: few clouds at 800 feet AGL
scattered clouds at 1800 feet AGL
few clouds at 2500 feet AGL
overcast cloud deck at 7000 feet AGL
Weather: FU  (smoke)

METAR text: VABB 150500Z 17009KT 3000 -RA FEW008 SCT018 FEW025TCU OVC070 29/27 Q1005 TEMPO 2000 +SHRA
Conditions at: VABB (BOMBAY/SANTACRUZ, IN) observed 0500 UTC 15 June 2019
Temperature: 29.0°C (84°F)
Dewpoint: 27.0°C (81°F) [RH = 89%]
Pressure (altimeter): 29.68 inches Hg (1005.0 mb)
Winds: from the S (170 degrees) at 10 MPH (9 knots; 4.6 m/s)
Visibility: 1.86 miles (2.99 km)
Ceiling: 7000 feet AGL
Clouds: few clouds at 800 feet AGL
scattered clouds at 1800 feet AGL
few clouds at 2500 feet AGL
overcast cloud deck at 7000 feet AGL
Weather: -RA  (light rain)

Forecast for: VABB (BOMBAY/SANTACRUZ, IN)
Text: TAF VABB 161400Z 1615/1624 21012KT 2500 HZ SCT018 FEW025TCU BKN100
Forecast period: 1500 UTC 16 June 2019 to 0000 UTC 17 June 2019
Forecast type: FROM: standard forecast or significant change
Winds: from the SSW (210 degrees) at 14 MPH (12 knots; 6.2 m/s)
Visibility: 1.55 miles (2.49 km)
Ceiling: 10000 feet AGL
Clouds: scattered clouds at 1800 feet AGL
few clouds at 2500 feet AGL
broken clouds at 10000 feet AGL
Weather: HZ  (haze)
Text: TEMPO 1615/1624 1500 SHRA RA SCT012 FEW030CB BKN080
Forecast period: 1500 UTC 16 June 2019 to 0000 UTC 17 June 2019
Forecast type: TEMPORARY: The following changes expected for less than half the time period
Visibility: 0.93 miles (1.50 km)
Ceiling: 8000 feet AGL
Clouds: scattered clouds at 1200 feet AGL
few clouds at 3000 feet AGL
broken clouds at 8000 feet AGL
Weather: SHRA RA  (rain showers, moderate rain)